Time;durP1;ratioP1;P1;durP2;ratioP2;P2;SDS_P1;SDS_P2;PMS_P1;PMS_P2;Temp;Humidity;BMP_temperature;BMP_pressure;BME280_temperature;BME280_humidity;BME280_pressure;Samples;Min_cycle;Max_cycle;Signal;HPM_P1;HPM_P2
2022/07/20 05:54:35;;;;;;;5.28;4.70;;;;;;;;;;6141531;23;20411;-83
2022/07/20 05:57:00;;;;;;;4.40;4.00;;;;;;;;;;6218289;23;20028;-83
2022/07/20 05:59:27;;;;;;;5.45;4.95;;;;;;;;;;6217973;23;20372;-92
2022/07/20 06:01:52;;;;;;;6.20;4.80;;;;;;;;;;6218570;23;20411;-83
2022/07/20 06:04:18;;;;;;;5.35;4.95;;;;;;;;;;6207803;23;20005;-93
2022/07/20 09:42:40;;;;;;;6.50;4.28;;;;;;;;;;6199966;23;20017;-82
2022/07/20 09:45:28;;;;;;;5.10;4.60;;;;;;;;;;6185842;23;20073;-82
2022/07/20 09:48:04;;;;;;;6.22;4.78;;;;;;;;;;6186029;23;20008;-81
2022/07/20 09:50:31;;;;;;;7.30;4.68;;;;;;;;;;6157620;23;20002;-81
2022/07/20 09:52:57;;;;;;;7.53;5.20;;;;;;;;;;6157917;23;20008;-80
2022/07/20 09:55:23;;;;;;;6.28;5.20;;;;;;;;;;6158036;23;20005;-84
2022/07/20 09:57:51;;;;;;;4.72;4.32;;;;;;;;;;6157639;23;20310;-84
2022/07/20 10:00:20;;;;;;;6.53;4.30;;;;;;;;;;6180873;23;20033;-79
2022/07/20 10:02:50;;;;;;;4.88;4.07;;;;;;;;;;6157935;23;20028;-82
2022/07/20 10:05:18;;;;;;;7.75;4.68;;;;;;;;;;6157717;23;20009;-84
2022/07/20 10:07:45;;;;;;;4.57;4.20;;;;;;;;;;6157668;23;20036;-85
2022/07/20 10:10:11;;;;;;;4.93;4.20;;;;;;;;;;6157399;23;20056;-79
2022/07/20 10:12:36;;;;;;;4.25;3.67;;;;;;;;;;6157741;23;20487;-91
2022/07/20 10:15:07;;;;;;;4.53;3.90;;;;;;;;;;6157414;23;20325;-89
2022/07/20 10:17:33;;;;;;;4.97;4.18;;;;;;;;;;6157255;23;20005;-85
2022/07/20 10:19:59;;;;;;;4.45;4.05;;;;;;;;;;6180652;23;20012;-84
2022/07/20 10:22:24;;;;;;;4.47;3.90;;;;;;;;;;6157464;23;20001;-80
2022/07/20 10:25:18;;;;;;;4.85;4.07;;;;;;;;;;6157768;23;20005;-83
2022/07/20 10:27:43;;;;;;;6.25;3.80;;;;;;;;;;6157409;23;20127;-85
2022/07/20 10:30:17;;;;;;;5.28;3.95;;;;;;;;;;6157603;23;20005;-86
2022/07/20 10:32:56;;;;;;;6.50;3.88;;;;;;;;;;6157856;23;20008;-86
2022/07/20 10:35:31;;;;;;;3.95;3.45;;;;;;;;;;6157310;23;20012;-87
2022/07/20 10:37:57;;;;;;;6.53;3.50;;;;;;;;;;6157515;23;20006;-87
2022/07/20 10:40:25;;;;;;;4.72;3.40;;;;;;;;;;6180958;23;20008;-88
2022/07/20 10:42:53;;;;;;;6.10;3.58;;;;;;;;;;6171031;23;20494;-85
2022/07/20 10:45:23;;;;;;;3.10;2.80;;;;;;;;;;6185404;23;20014;-87
2022/07/20 10:48:11;;;;;;;3.35;2.88;;;;;;;;;;6160536;23;20005;-85
2022/07/20 10:50:39;;;;;;;3.30;3.00;;;;;;;;;;6186958;23;20076;-83
2022/07/20 10:53:13;;;;;;;5.75;2.78;;;;;;;;;;6187083;23;20075;-83
2022/07/20 10:55:38;;;;;;;5.63;2.83;;;;;;;;;;6186739;23;20505;-84
2022/07/20 10:58:07;;;;;;;4.35;3.17;;;;;;;;;;6186483;23;20001;-82
2022/07/20 11:00:35;;;;;;;6.20;2.97;;;;;;;;;;6186752;23;20035;-82
2022/07/20 11:03:13;;;;;;;3.58;2.97;;;;;;;;;;6186918;23;20001;-83
2022/07/20 11:05:39;;;;;;;4.43;3.20;;;;;;;;;;6160529;23;20016;-82
2022/07/20 11:08:09;;;;;;;3.67;3.38;;;;;;;;;;6160886;23;20036;-84
2022/07/20 11:10:35;;;;;;;3.92;3.30;;;;;;;;;;6186723;23;20001;-83
2022/07/20 11:13:06;;;;;;;3.70;2.78;;;;;;;;;;6186598;23;20324;-83
2022/07/20 11:15:44;;;;;;;3.85;2.85;;;;;;;;;;6186957;23;20536;-85
2022/07/20 11:18:12;;;;;;;6.00;3.15;;;;;;;;;;6186988;23;20087;-83
2022/07/20 11:20:50;;;;;;;4.32;3.03;;;;;;;;;;6186599;23;20005;-83
2022/07/20 11:23:17;;;;;;;7.43;3.10;;;;;;;;;;6186612;23;20001;-82
2022/07/20 11:25:59;;;;;;;6.50;3.25;;;;;;;;;;6160315;23;20083;-83
2022/07/20 11:28:35;;;;;;;3.75;3.00;;;;;;;;;;6186882;23;19998;-86
2022/07/20 11:31:03;;;;;;;3.95;2.92;;;;;;;;;;6186621;23;20052;-83
2022/07/20 11:33:34;;;;;;;4.60;3.33;;;;;;;;;;6186690;23;20020;-83
2022/07/20 11:36:28;;;;;;;4.68;3.03;;;;;;;;;;6186570;23;20258;-83
2022/07/20 11:38:57;;;;;;;4.88;2.85;;;;;;;;;;6183697;23;20032;-84
2022/07/20 11:41:30;;;;;;;6.05;2.85;;;;;;;;;;6160898;23;20032;-84
2022/07/20 11:43:56;;;;;;;3.75;2.80;;;;;;;;;;6186103;23;20051;-84
2022/07/20 17:27:48;;;;;;;4.53;4.07;;;;;;;;;;6192650;23;20031;-89
2022/07/20 17:30:13;;;;;;;4.25;3.85;;;;;;;;;;6217383;23;20013;-90
2022/07/20 17:32:39;;;;;;;5.30;4.55;;;;;;;;;;6218380;23;20079;-92
2022/07/20 17:35:04;;;;;;;6.88;4.97;;;;;;;;;;6207116;23;20001;-92
2022/07/20 17:37:30;;;;;;;8.30;5.43;;;;;;;;;;6188167;23;20471;-89
2022/07/20 17:39:57;;;;;;;6.32;3.97;;;;;;;;;;6188716;23;20024;-84
2022/07/20 17:42:22;;;;;;;6.60;4.40;;;;;;;;;;6188033;23;20016;-87
2022/07/20 17:44:48;;;;;;;6.93;4.00;;;;;;;;;;6188298;23;20301;-83
2022/07/20 17:47:13;;;;;;;6.28;3.72;;;;;;;;;;6187800;23;20005;-84
2022/07/20 17:49:39;;;;;;;5.15;4.55;;;;;;;;;;6187772;23;20009;-79
2022/07/20 17:52:05;;;;;;;10.10;7.10;;;;;;;;;;6187483;23;20001;-81
2022/07/20 17:54:31;;;;;;;21.05;10.77;;;;;;;;;;6187800;23;20016;-85
2022/07/20 17:56:57;;;;;;;17.35;8.57;;;;;;;;;;6188237;23;20005;-81
2022/07/20 17:59:25;;;;;;;15.40;9.20;;;;;;;;;;6188521;23;20482;-88
2022/07/20 18:01:52;;;;;;;19.55;9.18;;;;;;;;;;6162017;23;20092;-83
2022/07/20 18:04:19;;;;;;;8.35;6.60;;;;;;;;;;6188501;23;20005;-88
2022/07/20 18:06:46;;;;;;;5.10;4.05;;;;;;;;;;6185620;23;20005;-89
2022/07/20 18:09:11;;;;;;;5.43;4.05;;;;;;;;;;6185947;23;20005;-89
2022/07/20 18:11:37;;;;;;;4.55;4.10;;;;;;;;;;6187946;23;20012;-89
2022/07/20 18:14:03;;;;;;;6.85;4.32;;;;;;;;;;6187402;23;20420;-90
2022/07/20 18:16:28;;;;;;;4.47;4.07;;;;;;;;;;6187497;23;20321;-89
2022/07/20 18:18:54;;;;;;;6.13;3.80;;;;;;;;;;6187084;23;20013;-90
2022/07/20 18:21:22;;;;;;;4.75;4.20;;;;;;;;;;6187311;23;20009;-88
2022/07/20 18:23:48;;;;;;;4.60;4.20;;;;;;;;;;6187575;23;20005;-91
2022/07/20 18:26:16;;;;;;;5.40;3.85;;;;;;;;;;6187634;23;20059;-86
2022/07/20 18:28:42;;;;;;;5.82;4.60;;;;;;;;;;6187754;23;20092;-87
2022/07/20 18:31:08;;;;;;;4.22;3.83;;;;;;;;;;6187849;23;20048;-88
2022/07/20 18:33:34;;;;;;;4.20;3.60;;;;;;;;;;6187745;23;20005;-87
2022/07/20 18:35:59;;;;;;;4.15;3.80;;;;;;;;;;6187614;23;20005;-85
2022/07/20 18:38:25;;;;;;;5.82;5.22;;;;;;;;;;6187670;23;20001;-89
2022/07/20 18:40:50;;;;;;;4.70;4.25;;;;;;;;;;6187506;23;20051;-84
2022/07/20 18:43:16;;;;;;;5.50;4.78;;;;;;;;;;6187722;23;20005;-87
2022/07/20 18:45:54;;;;;;;8.18;5.20;;;;;;;;;;6187371;23;20077;-86
2022/07/20 18:48:23;;;;;;;5.80;4.50;;;;;;;;;;6187383;23;20009;-84
2022/07/20 18:50:49;;;;;;;5.22;4.40;;;;;;;;;;6187422;23;20058;-84
2022/07/20 18:53:15;;;;;;;6.18;4.18;;;;;;;;;;6187733;23;20080;-85
2022/07/20 18:55:41;;;;;;;6.78;4.65;;;;;;;;;;6186930;23;20385;-85
2022/07/20 18:58:07;;;;;;;4.55;3.60;;;;;;;;;;6187379;23;20025;-85
2022/07/20 19:00:34;;;;;;;5.25;3.80;;;;;;;;;;6187266;23;20428;-84
2022/07/20 19:03:00;;;;;;;3.95;3.65;;;;;;;;;;6187222;23;20009;-89
2022/07/20 19:05:26;;;;;;;4.07;3.50;;;;;;;;;;6187054;23;20007;-85
2022/07/20 19:07:51;;;;;;;7.40;4.38;;;;;;;;;;6187245;23;20013;-84
2022/07/20 19:10:17;;;;;;;6.03;4.50;;;;;;;;;;6187389;23;20005;-84
2022/07/20 19:12:42;;;;;;;5.18;4.20;;;;;;;;;;6187388;23;20055;-85
2022/07/20 19:15:08;;;;;;;4.40;4.00;;;;;;;;;;6187268;23;20328;-86
2022/07/20 19:17:34;;;;;;;5.70;4.28;;;;;;;;;;6187060;23;20354;-88
2022/07/20 19:19:59;;;;;;;4.80;3.63;;;;;;;;;;6186985;23;20009;-85
2022/07/20 19:22:25;;;;;;;6.28;4.30;;;;;;;;;;6186990;23;20072;-87
2022/07/20 19:24:50;;;;;;;4.30;3.83;;;;;;;;;;6187060;23;20008;-87
2022/07/20 19:27:16;;;;;;;4.45;4.15;;;;;;;;;;6187349;23;20363;-86
2022/07/20 19:29:41;;;;;;;6.82;4.15;;;;;;;;;;6186978;23;20013;-91
2022/07/20 19:32:07;;;;;;;4.47;3.88;;;;;;;;;;6187635;23;20028;-84
2022/07/20 19:34:32;;;;;;;4.57;3.90;;;;;;;;;;6187138;23;20028;-88
2022/07/20 19:36:58;;;;;;;4.10;3.47;;;;;;;;;;6187354;23;20005;-90
2022/07/20 19:39:23;;;;;;;5.47;3.72;;;;;;;;;;6187205;23;20329;-87
2022/07/20 19:41:49;;;;;;;4.07;3.55;;;;;;;;;;6187287;23;20004;-84
2022/07/20 19:44:14;;;;;;;6.90;3.83;;;;;;;;;;6186778;23;20004;-89
2022/07/20 19:46:40;;;;;;;4.25;3.85;;;;;;;;;;6186894;23;20083;-86
2022/07/20 19:49:06;;;;;;;4.82;3.85;;;;;;;;;;6186795;23;20004;-87
2022/07/20 19:51:32;;;;;;;7.53;3.85;;;;;;;;;;6186856;23;20005;-86
2022/07/20 19:53:57;;;;;;;5.50;3.80;;;;;;;;;;6186979;23;20013;-87
2022/07/20 19:56:23;;;;;;;6.22;3.67;;;;;;;;;;6185071;23;20035;-86
2022/07/20 19:58:48;;;;;;;4.80;4.40;;;;;;;;;;6187096;23;20001;-86
2022/07/20 20:01:13;;;;;;;6.32;3.88;;;;;;;;;;6186791;23;20004;-88
2022/07/20 20:03:39;;;;;;;6.00;3.97;;;;;;;;;;6186583;23;20335;-87
2022/07/20 20:06:05;;;;;;;6.45;4.22;;;;;;;;;;6186637;23;20008;-89
2022/07/20 20:08:30;;;;;;;4.00;3.63;;;;;;;;;;6186925;23;20419;-89
2022/07/20 20:10:56;;;;;;;3.80;3.40;;;;;;;;;;6187216;23;20372;-91
2022/07/20 20:13:21;;;;;;;4.95;3.67;;;;;;;;;;6186616;23;20039;-85
2022/07/20 20:15:47;;;;;;;4.68;3.63;;;;;;;;;;6186334;23;20032;-86
2022/07/20 20:18:12;;;;;;;4.40;3.20;;;;;;;;;;6186614;23;20001;-85
2022/07/20 20:20:37;;;;;;;5.28;4.15;;;;;;;;;;6186594;23;20005;-89
2022/07/20 20:23:03;;;;;;;5.93;3.75;;;;;;;;;;6186605;23;20001;-84
2022/07/20 20:25:28;;;;;;;3.60;3.30;;;;;;;;;;6186705;23;20008;-88
2022/07/20 20:27:54;;;;;;;6.57;3.80;;;;;;;;;;6135428;23;20016;-87
2022/07/20 20:30:19;;;;;;;5.53;4.80;;;;;;;;;;6186167;23;20443;-86
2022/07/20 20:32:45;;;;;;;5.93;5.13;;;;;;;;;;6186511;23;20376;-87
2022/07/20 20:35:10;;;;;;;8.40;4.25;;;;;;;;;;6186096;23;20044;-86
2022/07/20 20:37:36;;;;;;;5.20;4.15;;;;;;;;;;6184588;23;20012;-86
2022/07/20 20:40:02;;;;;;;4.57;3.65;;;;;;;;;;6186296;23;20028;-87
2022/07/20 20:42:28;;;;;;;4.03;3.40;;;;;;;;;;6186405;23;20009;-85
2022/07/20 20:44:53;;;;;;;3.85;3.47;;;;;;;;;;6184643;23;20032;-87
2022/07/20 20:47:18;;;;;;;4.20;3.78;;;;;;;;;;6186366;23;20012;-86
2022/07/20 20:49:44;;;;;;;4.05;3.65;;;;;;;;;;6186172;23;20063;-86
2022/07/20 20:52:09;;;;;;;5.28;3.88;;;;;;;;;;6186220;23;20083;-87
2022/07/20 20:54:35;;;;;;;5.15;3.40;;;;;;;;;;6186335;23;20048;-86
2022/07/20 20:57:00;;;;;;;4.53;4.03;;;;;;;;;;6186060;23;20084;-88
2022/07/20 20:59:26;;;;;;;5.32;3.85;;;;;;;;;;6186296;23;20325;-86
2022/07/20 21:01:52;;;;;;;4.88;3.30;;;;;;;;;;6159776;23;20056;-84
2022/07/20 21:04:17;;;;;;;5.97;3.72;;;;;;;;;;6185976;23;20470;-90
2022/07/20 21:06:43;;;;;;;3.70;3.40;;;;;;;;;;6186631;23;20016;-86
2022/07/20 21:09:08;;;;;;;3.90;3.47;;;;;;;;;;6186432;23;20005;-86
2022/07/20 21:11:33;;;;;;;4.47;3.80;;;;;;;;;;6187522;23;20001;-87
2022/07/20 21:13:59;;;;;;;4.68;3.38;;;;;;;;;;6186517;23;20383;-87
2022/07/20 21:16:25;;;;;;;4.35;3.95;;;;;;;;;;6186656;23;20016;-86
2022/07/20 21:18:50;;;;;;;4.28;3.90;;;;;;;;;;6186357;23;20036;-88
2022/07/20 21:21:16;;;;;;;4.82;3.70;;;;;;;;;;6186359;23;20091;-86
2022/07/20 21:23:42;;;;;;;5.15;3.97;;;;;;;;;;6186118;23;20036;-86
2022/07/20 21:26:10;;;;;;;4.78;3.97;;;;;;;;;;6186348;23;20012;-86
2022/07/20 21:28:36;;;;;;;3.90;3.60;;;;;;;;;;6179724;23;20433;-85
2022/07/20 21:31:01;;;;;;;6.78;3.80;;;;;;;;;;6156820;23;20001;-87
2022/07/20 21:33:27;;;;;;;6.35;3.45;;;;;;;;;;6179732;23;20028;-84
2022/07/20 21:35:52;;;;;;;4.90;3.78;;;;;;;;;;6156297;23;20006;-89
2022/07/20 21:38:18;;;;;;;4.40;4.00;;;;;;;;;;6156541;23;20009;-84
2022/07/20 21:40:43;;;;;;;5.03;4.10;;;;;;;;;;6156596;23;20075;-86
2022/07/20 21:43:09;;;;;;;4.65;4.10;;;;;;;;;;6157761;23;20420;-86
2022/07/20 21:45:35;;;;;;;4.60;3.95;;;;;;;;;;6158408;23;20006;-86
2022/07/20 21:48:01;;;;;;;6.78;4.18;;;;;;;;;;6156571;23;20372;-86
2022/07/20 21:50:29;;;;;;;5.70;4.00;;;;;;;;;;6158049;23;20011;-87
2022/07/20 21:52:58;;;;;;;4.22;3.55;;;;;;;;;;6158340;23;20002;-88
2022/07/20 21:55:25;;;;;;;4.30;3.90;;;;;;;;;;6181105;23;20031;-86
2022/07/20 21:57:51;;;;;;;4.90;3.78;;;;;;;;;;6180950;23;20067;-85
2022/07/20 22:00:17;;;;;;;8.00;4.18;;;;;;;;;;6157804;23;20002;-85
2022/07/20 22:02:43;;;;;;;4.93;3.70;;;;;;;;;;6157612;23;20480;-83
2022/07/20 22:05:09;;;;;;;6.45;4.30;;;;;;;;;;6157619;23;20005;-84
